Prosperity — WDB9911 — position and weather

sailwx.info

Track history (hours):
 
Tides and Currents Weather Stations Pressure Air Temp Water Temp Dewpoint Dewpoint Depression Visibility Wind Speed Wind Dir Waves Ship Positions

Prosperity

Owner: American River Transportation Company, St Louis, MO. More information available from US FCC via Universal Licensing System and Coast Guard Vessel Documentation Center.

Last reported at 2017-Oct-02 08:24 UTC. Time now 2017-Dec-15 20:07 UTC.
Position N 38°55' W 090°17'.
Warning: this ship's position is months out of date.

Length 51 m; draft 3.4 m.

Type: Towing. MMSI: 366984960.

Date/timePositionNaut miles runAvg speedWind from/ knotsBaromVisibWave heightAir tempDewpointWater temp
2017-Oct-02 08:24N 38°55' W 090°17'2 4.3
2017-Oct-02 08:00N 38°55' W 090°19'2 4.4
2017-Oct-02 07:30N 38°57' W 090°21'2 4.6
2017-Oct-02 07:00N 38°58' W 090°24'2 4.7
2017-Oct-02 06:30N 38°58' W 090°27'2 4.0
2017-Oct-02 06:00N 38°58' W 090°29'2 3.5
2017-Oct-02 05:30N 38°57' W 090°31'  
2017-Sep-27 12:08N 38°58' W 090°33'1 4.7
2017-Sep-27 12:00N 38°58' W 090°33'2 3.9
2017-Sep-27 11:30N 38°58' W 090°30'2 4.5
2017-Sep-27 11:00N 38°58' W 090°27'2 3.8
2017-Sep-27 10:30N 38°58' W 090°25'0 0.3
2017-Sep-27 10:00N 38°58' W 090°25'2 3.8
2017-Sep-27 09:31N 38°57' W 090°22'2 4.4
2017-Sep-27 09:00N 38°56' W 090°20'2 4.4
2017-Sep-27 08:30N 38°55' W 090°17'2 4.4
2017-Sep-27 08:00N 38°55' W 090°15'3 4.6
2017-Sep-27 07:26N 38°54' W 090°12'  
2017-Sep-25 02:27N 38°53' W 090°11'2 4.3
2017-Sep-25 02:00N 38°54' W 090°13'3 0.7
2017-Sep-24 21:34N 38°55' W 090°17'0 4.8
2017-Sep-24 21:30N 38°55' W 090°17'2 4.4
2017-Sep-24 21:00N 38°56' W 090°20'2 4.8
2017-Sep-24 20:30N 38°57' W 090°22'2 4.9
2017-Sep-24 20:00N 38°58' W 090°25'2 4.6
2017-Sep-24 19:30N 38°58' W 090°28'2 3.9
2017-Sep-24 19:00N 38°57' W 090°31'  
Track history (hours):
 
Tides and Currents Weather Stations Pressure Air Temp Water Temp Dewpoint Dewpoint Depression Visibility Wind Speed Wind Dir Waves Ship Positions

Prosperity

Owner: American River Transportation Company, St Louis, MO. More information available from US FCC via Universal Licensing System and Coast Guard Vessel Documentation Center.

Last reported at 2017-Oct-02 08:24 UTC. Time now 2017-Dec-15 20:07 UTC.
Position N 38°55' W 090°17'.
Warning: this ship's position is months out of date.

Length 51 m; draft 3.4 m.

Type: Towing. MMSI: 366984960.

Date/timePositionNaut miles runAvg speedWind from/ knotsBaromVisibWave heightAir tempDewpointWater temp
2017-Oct-02 08:24N 38°55' W 090°17'2 4.3
2017-Oct-02 08:00N 38°55' W 090°19'2 4.4
2017-Oct-02 07:30N 38°57' W 090°21'2 4.6
2017-Oct-02 07:00N 38°58' W 090°24'2 4.7
2017-Oct-02 06:30N 38°58' W 090°27'2 4.0
2017-Oct-02 06:00N 38°58' W 090°29'2 3.5
2017-Oct-02 05:30N 38°57' W 090°31'  
2017-Sep-27 12:08N 38°58' W 090°33'1 4.7
2017-Sep-27 12:00N 38°58' W 090°33'2 3.9
2017-Sep-27 11:30N 38°58' W 090°30'2 4.5
2017-Sep-27 11:00N 38°58' W 090°27'2 3.8
2017-Sep-27 10:30N 38°58' W 090°25'0 0.3
2017-Sep-27 10:00N 38°58' W 090°25'2 3.8
2017-Sep-27 09:31N 38°57' W 090°22'2 4.4
2017-Sep-27 09:00N 38°56' W 090°20'2 4.4
2017-Sep-27 08:30N 38°55' W 090°17'2 4.4
2017-Sep-27 08:00N 38°55' W 090°15'3 4.6
2017-Sep-27 07:26N 38°54' W 090°12'  
2017-Sep-25 02:27N 38°53' W 090°11'2 4.3
2017-Sep-25 02:00N 38°54' W 090°13'3 0.7
2017-Sep-24 21:34N 38°55' W 090°17'0 4.8
2017-Sep-24 21:30N 38°55' W 090°17'2 4.4
2017-Sep-24 21:00N 38°56' W 090°20'2 4.8
2017-Sep-24 20:30N 38°57' W 090°22'2 4.9
2017-Sep-24 20:00N 38°58' W 090°25'2 4.6
2017-Sep-24 19:30N 38°58' W 090°28'2 3.9
2017-Sep-24 19:00N 38°57' W 090°31'  

Dump ship's entire track history